Time;durP1;ratioP1;P1;durP2;ratioP2;P2;SDS_P1;SDS_P2;PMS_P1;PMS_P2;Temp;Humidity;BMP_temperature;BMP_pressure;BME280_temperature;BME280_humidity;BME280_pressure;Samples;Min_cycle;Max_cycle;Signal;HPM_P1;HPM_P2
2023/02/12 00:02:23;;;;;;;;;;;;;;;;;;4420371;32;19933;-72
2023/02/12 00:04:48;;;;;;;;;;;;;;;;;;4418719;32;19960;-72
2023/02/12 00:07:13;;;;;;;;;;;;;;;;;;4419423;32;19941;-71
2023/02/12 00:09:39;;;;;;;;;;;;;;;;;;4420528;32;19947;-72
2023/02/12 00:12:04;;;;;;;;;;;;;;;;;;4421751;32;20323;-72
2023/02/12 00:14:29;;;;;;;;;;;;;;;;;;4421882;32;19990;-73
2023/02/12 00:16:54;;;;;;;;;;;;;;;;;;4422951;32;20371;-73
2023/02/12 00:19:19;;;;;;;;;;;;;;;;;;4423027;32;20262;-72
2023/02/12 00:21:44;;;;;;;;;;;;;;;;;;4423190;32;19940;-72
2023/02/12 00:24:09;;;;;;;;;;;;;;;;;;4422946;32;20311;-71
2023/02/12 00:26:34;;;;;;;;;;;;;;;;;;4421165;32;19941;-72
2023/02/12 00:28:59;;;;;;;;;;;;;;;;;;4423831;32;19937;-72
2023/02/12 00:31:25;;;;;;;;;;;;;;;;;;4421928;32;19941;-72
2023/02/12 00:33:50;;;;;;;;;;;;;;;;;;4422937;32;20312;-71
2023/02/12 00:36:15;;;;;;;;;;;;;;;;;;4423950;32;19953;-72
2023/02/12 00:38:40;;;;;;;;;;;;;;;;;;4423105;32;19933;-72
2023/02/12 00:41:05;;;;;;;;;;;;;;;;;;4421856;32;19968;-72
2023/02/12 00:43:30;;;;;;;;;;;;;;;;;;4422334;32;19948;-72
2023/02/12 00:45:55;;;;;;;;;;;;;;;;;;4424403;32;19965;-72
2023/02/12 00:48:20;;;;;;;;;;;;;;;;;;4423849;32;19937;-71
2023/02/12 00:50:45;;;;;;;;;;;;;;;;;;4422528;32;19972;-73
2023/02/12 00:53:11;;;;;;;;;;;;;;;;;;4425591;32;19952;-72
2023/02/12 00:55:36;;;;;;;;;;;;;;;;;;4422475;32;19941;-71
2023/02/12 00:58:01;;;;;;;;;;;;;;;;;;4421514;32;19933;-72
2023/02/12 01:00:26;;;;;;;;;;;;;;;;;;4421961;32;19937;-72
2023/02/12 01:02:52;;;;;;;;;;;;;;;;;;4422582;32;19974;-72
2023/02/12 01:05:18;;;;;;;;;;;;;;;;;;4422658;32;19945;-72
2023/02/12 01:07:43;;;;;;;;;;;;;;;;;;4421576;32;19972;-73
2023/02/12 01:10:08;;;;;;;;;;;;;;;;;;4424085;32;19937;-71
2023/02/12 01:12:33;;;;;;;;;;;;;;;;;;4421661;32;19956;-72
2023/02/12 01:14:58;;;;;;;;;;;;;;;;;;4421574;32;19937;-71
2023/02/12 01:17:23;;;;;;;;;;;;;;;;;;4423062;32;19953;-73
2023/02/12 01:19:48;;;;;;;;;;;;;;;;;;4421121;32;19937;-70
2023/02/12 01:22:13;;;;;;;;;;;;;;;;;;4422059;32;19933;-71
2023/02/12 01:24:39;;;;;;;;;;;;;;;;;;4422368;32;19937;-72
2023/02/12 01:27:04;;;;;;;;;;;;;;;;;;4422257;32;20290;-72
2023/02/12 01:29:29;;;;;;;;;;;;;;;;;;4421740;32;19942;-71
2023/02/12 01:31:54;;;;;;;;;;;;;;;;;;4421672;32;20298;-71
2023/02/12 01:34:19;;;;;;;;;;;;;;;;;;4422231;32;20306;-72
2023/02/12 01:36:44;;;;;;;;;;;;;;;;;;4421708;32;19932;-72
2023/02/12 01:39:09;;;;;;;;;;;;;;;;;;4421131;32;19937;-72
2023/02/12 01:41:34;;;;;;;;;;;;;;;;;;4422536;32;19989;-72
2023/02/12 01:43:59;;;;;;;;;;;;;;;;;;4420681;32;19937;-72
2023/02/12 01:46:24;;;;;;;;;;;;;;;;;;4422260;32;19933;-71
2023/02/12 01:48:50;;;;;;;;;;;;;;;;;;4422374;32;19948;-72
2023/02/12 01:51:15;;;;;;;;;;;;;;;;;;4421558;32;19951;-72
2023/02/12 01:53:40;;;;;;;;;;;;;;;;;;4422598;32;19994;-72
2023/02/12 01:56:05;;;;;;;;;;;;;;;;;;4421389;32;19977;-72
2023/02/12 01:58:30;;;;;;;;;;;;;;;;;;4420362;32;19937;-73
2023/02/12 02:00:55;;;;;;;;;;;;;;;;;;4421622;32;19976;-72
2023/02/12 02:03:20;;;;;;;;;;;;;;;;;;4422366;32;19933;-72
2023/02/12 02:05:45;;;;;;;;;;;;;;;;;;4422538;32;19932;-72
2023/02/12 02:08:11;;;;;;;;;;;;;;;;;;4422369;32;19988;-72
2023/02/12 02:10:36;;;;;;;;;;;;;;;;;;4422710;32;19979;-72
2023/02/12 02:15:45;;;;;;;;;;;;;;;;;;4423153;32;19956;-71
2023/02/12 02:18:10;;;;;;;;;;;;;;;;;;4421308;32;19937;-72
2023/02/12 02:20:35;;;;;;;;;;;;;;;;;;4419994;32;19940;-72
2023/02/12 02:23:00;;;;;;;;;;;;;;;;;;4421640;32;20308;-72
2023/02/12 02:25:25;;;;;;;;;;;;;;;;;;4421205;32;20009;-72
2023/02/12 02:27:50;;;;;;;;;;;;;;;;;;4420178;32;19944;-72
2023/02/12 02:30:15;;;;;;;;;;;;;;;;;;4421168;32;20303;-72
2023/02/12 02:32:40;;;;;;;;;;;;;;;;;;4421728;32;19961;-72
2023/02/12 02:35:06;;;;;;;;;;;;;;;;;;4421680;32;19947;-71
2023/02/12 02:37:31;;;;;;;;;;;;;;;;;;4422858;32;19937;-72
2023/02/12 02:39:56;;;;;;;;;;;;;;;;;;4421475;32;20011;-73
2023/02/12 02:42:21;;;;;;;;;;;;;;;;;;4420677;32;19932;-72
2023/02/12 02:44:46;;;;;;;;;;;;;;;;;;4421493;32;19945;-72
2023/02/12 02:47:11;;;;;;;;;;;;;;;;;;4421766;32;19974;-73
2023/02/12 02:49:36;;;;;;;;;;;;;;;;;;4421045;32;19952;-72
2023/02/12 02:52:01;;;;;;;;;;;;;;;;;;4422512;32;19941;-72
2023/02/12 02:54:27;;;;;;;;;;;;;;;;;;4422349;32;19937;-72
2023/02/12 02:56:52;;;;;;;;;;;;;;;;;;4419503;32;19936;-72
2023/02/12 02:59:17;;;;;;;;;;;;;;;;;;4420462;32;20310;-73
2023/02/12 03:01:42;;;;;;;;;;;;;;;;;;4421152;32;19948;-72
2023/02/12 03:04:07;;;;;;;;;;;;;;;;;;4419409;32;19952;-73
2023/02/12 03:06:32;;;;;;;;;;;;;;;;;;4421844;32;19933;-72
2023/02/12 03:08:57;;;;;;;;;;;;;;;;;;4421852;32;19988;-72
2023/02/12 03:11:22;;;;;;;;;;;;;;;;;;4422114;32;19933;-71
2023/02/12 03:13:47;;;;;;;;;;;;;;;;;;4421068;32;19955;-73
2023/02/12 03:16:12;;;;;;;;;;;;;;;;;;4419475;32;20291;-72
2023/02/12 03:18:38;;;;;;;;;;;;;;;;;;4419536;32;19949;-72
2023/02/12 03:21:04;;;;;;;;;;;;;;;;;;4421350;32;19953;-72
2023/02/12 03:23:29;;;;;;;;;;;;;;;;;;4419283;32;19933;-72
2023/02/12 03:25:55;;;;;;;;;;;;;;;;;;4421376;32;20010;-70
2023/02/12 03:28:20;;;;;;;;;;;;;;;;;;4420688;32;19944;-72
2023/02/12 03:30:45;;;;;;;;;;;;;;;;;;4422219;32;19933;-72
2023/02/12 03:33:10;;;;;;;;;;;;;;;;;;4422387;32;19959;-73
2023/02/12 03:35:36;;;;;;;;;;;;;;;;;;4420907;32;20437;-71
2023/02/12 03:38:01;;;;;;;;;;;;;;;;;;4420338;32;19945;-72
2023/02/12 03:40:26;;;;;;;;;;;;;;;;;;4421003;32;19972;-71
2023/02/12 03:42:51;;;;;;;;;;;;;;;;;;4419494;32;20390;-71
2023/02/12 03:45:16;;;;;;;;;;;;;;;;;;4420305;32;19949;-71
2023/02/12 03:47:41;;;;;;;;;;;;;;;;;;4421103;32;19953;-71
2023/02/12 03:50:06;;;;;;;;;;;;;;;;;;4419662;32;20298;-71
2023/02/12 03:52:31;;;;;;;;;;;;;;;;;;4422675;32;19937;-71
2023/02/12 03:54:56;;;;;;;;;;;;;;;;;;4424274;32;19944;-72
2023/02/12 03:57:22;;;;;;;;;;;;;;;;;;4423254;32;19975;-72
2023/02/12 03:59:47;;;;;;;;;;;;;;;;;;4425145;32;19938;-72
2023/02/12 04:02:12;;;;;;;;;;;;;;;;;;4424076;32;20325;-72
2023/02/12 04:04:37;;;;;;;;;;;;;;;;;;4422763;32;19937;-72
2023/02/12 04:07:02;;;;;;;;;;;;;;;;;;4423590;32;20364;-71
2023/02/12 04:09:27;;;;;;;;;;;;;;;;;;4423485;32;19933;-71
2023/02/12 04:11:52;;;;;;;;;;;;;;;;;;4423402;32;19940;-71
2023/02/12 04:14:17;;;;;;;;;;;;;;;;;;4423697;32;19942;-71
2023/02/12 04:16:43;;;;;;;;;;;;;;;;;;4421415;32;19941;-72
2023/02/12 04:19:08;;;;;;;;;;;;;;;;;;4423499;32;19993;-71
2023/02/12 04:21:33;;;;;;;;;;;;;;;;;;4423557;32;19955;-72
2023/02/12 04:23:58;;;;;;;;;;;;;;;;;;4423082;32;19952;-71
2023/02/12 04:26:23;;;;;;;;;;;;;;;;;;4422334;32;19974;-71
2023/02/12 04:28:48;;;;;;;;;;;;;;;;;;4421746;32;19989;-72
2023/02/12 04:31:14;;;;;;;;;;;;;;;;;;4423029;32;19984;-72
2023/02/12 04:33:39;;;;;;;;;;;;;;;;;;4422927;32;19945;-71
2023/02/12 04:36:04;;;;;;;;;;;;;;;;;;4421854;32;20333;-71
2023/02/12 04:38:29;;;;;;;;;;;;;;;;;;4421996;32;19937;-72
2023/02/12 04:40:54;;;;;;;;;;;;;;;;;;4421620;32;19972;-72
2023/02/12 04:43:20;;;;;;;;;;;;;;;;;;4423629;32;19960;-71
2023/02/12 04:45:45;;;;;;;;;;;;;;;;;;4423779;32;20296;-71
2023/02/12 04:48:11;;;;;;;;;;;;;;;;;;4421749;32;19937;-72
2023/02/12 04:50:36;;;;;;;;;;;;;;;;;;4422260;32;19929;-73
2023/02/12 04:53:02;;;;;;;;;;;;;;;;;;4423984;32;20344;-72
2023/02/12 04:55:27;;;;;;;;;;;;;;;;;;4423333;32;19971;-72
2023/02/12 04:57:52;;;;;;;;;;;;;;;;;;4424125;32;20001;-72
2023/02/12 05:00:17;;;;;;;;;;;;;;;;;;4424067;32;19948;-71
2023/02/12 05:02:42;;;;;;;;;;;;;;;;;;4422760;32;19997;-71
2023/02/12 05:05:07;;;;;;;;;;;;;;;;;;4421413;32;19937;-71
2023/02/12 05:07:32;;;;;;;;;;;;;;;;;;4422712;32;19933;-71
2023/02/12 05:09:57;;;;;;;;;;;;;;;;;;4421472;32;19937;-71
2023/02/12 05:12:23;;;;;;;;;;;;;;;;;;4421167;32;19945;-72
2023/02/12 05:14:48;;;;;;;;;;;;;;;;;;4423241;32;19957;-71
2023/02/12 05:17:13;;;;;;;;;;;;;;;;;;4407691;32;20308;-72
2023/02/12 05:19:38;;;;;;;;;;;;;;;;;;4405621;32;20078;-71
2023/02/12 05:22:03;;;;;;;;;;;;;;;;;;4406113;32;20332;-71
2023/02/12 05:24:28;;;;;;;;;;;;;;;;;;4410914;32;20327;-71
2023/02/12 05:26:53;;;;;;;;;;;;;;;;;;4423850;32;19943;-72
2023/02/12 05:29:18;;;;;;;;;;;;;;;;;;4422656;32;20354;-72
2023/02/12 05:31:43;;;;;;;;;;;;;;;;;;4422473;32;20337;-71
2023/02/12 05:34:08;;;;;;;;;;;;;;;;;;4420690;32;20326;-71
2023/02/12 05:36:33;;;;;;;;;;;;;;;;;;4421007;32;19976;-71
2023/02/12 05:38:59;;;;;;;;;;;;;;;;;;4422459;32;19941;-71
2023/02/12 05:41:24;;;;;;;;;;;;;;;;;;4421414;32;19946;-72
2023/02/12 05:43:49;;;;;;;;;;;;;;;;;;4421093;32;19937;-73
2023/02/12 05:46:14;;;;;;;;;;;;;;;;;;4420668;32;19937;-71
2023/02/12 05:48:39;;;;;;;;;;;;;;;;;;4422319;32;19996;-71
2023/02/12 05:51:04;;;;;;;;;;;;;;;;;;4420736;32;19937;-71
2023/02/12 05:53:29;;;;;;;;;;;;;;;;;;4423439;32;19937;-72
2023/02/12 05:55:55;;;;;;;;;;;;;;;;;;4422295;32;19976;-71
2023/02/12 05:58:20;;;;;;;;;;;;;;;;;;4420806;32;19937;-72
2023/02/12 06:00:45;;;;;;;;;;;;;;;;;;4420186;32;20356;-72
2023/02/12 06:03:10;;;;;;;;;;;;;;;;;;4421695;32;20306;-73
2023/02/12 06:05:35;;;;;;;;;;;;;;;;;;4422968;32;19933;-71
2023/02/12 06:08:00;;;;;;;;;;;;;;;;;;4420642;32;20076;-71
2023/02/12 06:10:25;;;;;;;;;;;;;;;;;;4421333;32;20414;-71
2023/02/12 06:12:50;;;;;;;;;;;;;;;;;;4422805;32;19990;-74
2023/02/12 06:15:16;;;;;;;;;;;;;;;;;;4420900;32;19969;-71
2023/02/12 06:17:41;;;;;;;;;;;;;;;;;;4422678;32;19947;-70
2023/02/12 06:20:06;;;;;;;;;;;;;;;;;;4420416;32;19938;-71
2023/02/12 06:22:31;;;;;;;;;;;;;;;;;;4421131;32;19937;-71
2023/02/12 06:24:56;;;;;;;;;;;;;;;;;;4421094;32;19991;-72
2023/02/12 06:27:21;;;;;;;;;;;;;;;;;;4420338;32;20307;-72
2023/02/12 06:29:46;;;;;;;;;;;;;;;;;;4421144;32;20387;-71
2023/02/12 06:32:12;;;;;;;;;;;;;;;;;;4419826;32;20236;-71
2023/02/12 06:34:37;;;;;;;;;;;;;;;;;;4419805;32;19993;-71
2023/02/12 06:37:02;;;;;;;;;;;;;;;;;;4422455;32;19971;-70
2023/02/12 06:39:28;;;;;;;;;;;;;;;;;;4421401;32;19941;-71
2023/02/12 06:41:53;;;;;;;;;;;;;;;;;;4419439;32;19948;-72
2023/02/12 06:44:18;;;;;;;;;;;;;;;;;;4420434;32;19961;-71
2023/02/12 06:46:43;;;;;;;;;;;;;;;;;;4419874;32;20353;-71
2023/02/12 06:49:08;;;;;;;;;;;;;;;;;;4420576;32;19942;-71
2023/02/12 06:51:35;;;;;;;;;;;;;;;;;;4422915;32;19951;-71
2023/02/12 06:54:00;;;;;;;;;;;;;;;;;;4419641;32;19933;-72
2023/02/12 06:56:25;;;;;;;;;;;;;;;;;;4422428;32;19947;-72
2023/02/12 06:58:50;;;;;;;;;;;;;;;;;;4421975;32;19952;-72
2023/02/12 07:01:16;;;;;;;;;;;;;;;;;;4423044;32;19937;-71
2023/02/12 07:03:41;;;;;;;;;;;;;;;;;;4420499;32;20348;-71
2023/02/12 07:06:06;;;;;;;;;;;;;;;;;;4422441;32;20287;-71
2023/02/12 07:08:32;;;;;;;;;;;;;;;;;;4422856;32;19947;-71
2023/02/12 07:10:57;;;;;;;;;;;;;;;;;;4420491;32;19980;-71
2023/02/12 07:13:22;;;;;;;;;;;;;;;;;;4420516;32;20293;-70
2023/02/12 07:15:47;;;;;;;;;;;;;;;;;;4422315;32;19988;-71
2023/02/12 07:18:12;;;;;;;;;;;;;;;;;;4419384;32;19943;-71
2023/02/12 07:20:37;;;;;;;;;;;;;;;;;;4421944;32;19937;-71
2023/02/12 07:23:02;;;;;;;;;;;;;;;;;;4421012;32;19945;-72
2023/02/12 07:25:27;;;;;;;;;;;;;;;;;;4420602;32;19947;-71
2023/02/12 07:27:53;;;;;;;;;;;;;;;;;;4422653;32;19948;-71
2023/02/12 07:30:18;;;;;;;;;;;;;;;;;;4423540;32;19938;-71
2023/02/12 07:32:43;;;;;;;;;;;;;;;;;;4424713;32;19948;-70
2023/02/12 07:35:08;;;;;;;;;;;;;;;;;;4425250;32;19941;-71
2023/02/12 07:37:33;;;;;;;;;;;;;;;;;;4408451;32;20346;-72
2023/02/12 07:39:59;;;;;;;;;;;;;;;;;;4405918;32;20270;-71
2023/02/12 07:42:24;;;;;;;;;;;;;;;;;;4405346;32;19933;-72
2023/02/12 07:44:49;;;;;;;;;;;;;;;;;;4417883;32;19973;-71
2023/02/12 07:47:14;;;;;;;;;;;;;;;;;;4421127;32;19948;-71
2023/02/12 07:49:39;;;;;;;;;;;;;;;;;;4420116;32;19976;-71
2023/02/12 07:52:04;;;;;;;;;;;;;;;;;;4420540;32;19933;-72
2023/02/12 07:54:29;;;;;;;;;;;;;;;;;;4419280;32;19980;-73
2023/02/12 07:56:55;;;;;;;;;;;;;;;;;;4420331;32;19941;-70
2023/02/12 07:59:20;;;;;;;;;;;;;;;;;;4419010;32;19986;-72
2023/02/12 08:01:45;;;;;;;;;;;;;;;;;;4420980;32;19968;-71
2023/02/12 08:04:11;;;;;;;;;;;;;;;;;;4421850;32;19944;-70
2023/02/12 08:06:37;;;;;;;;;;;;;;;;;;4419074;32;19965;-71
2023/02/12 08:09:02;;;;;;;;;;;;;;;;;;4420467;32;20277;-71
2023/02/12 08:11:27;;;;;;;;;;;;;;;;;;4420675;32;19993;-71
2023/02/12 08:13:53;;;;;;;;;;;;;;;;;;4418685;32;19941;-71
2023/02/12 08:16:18;;;;;;;;;;;;;;;;;;4419227;32;19951;-72
2023/02/12 08:18:43;;;;;;;;;;;;;;;;;;4420493;32;19952;-71
2023/02/12 08:21:08;;;;;;;;;;;;;;;;;;4419677;32;19938;-71
2023/02/12 08:23:33;;;;;;;;;;;;;;;;;;4419891;32;19951;-72
2023/02/12 08:25:58;;;;;;;;;;;;;;;;;;4419009;32;20320;-71
2023/02/12 08:28:23;;;;;;;;;;;;;;;;;;4420591;32;20356;-72
2023/02/12 08:30:48;;;;;;;;;;;;;;;;;;4421619;32;19938;-71
2023/02/12 08:33:13;;;;;;;;;;;;;;;;;;4420004;32;19951;-71
2023/02/12 08:35:39;;;;;;;;;;;;;;;;;;4418566;32;19941;-72
2023/02/12 08:38:04;;;;;;;;;;;;;;;;;;4421961;32;19933;-72
2023/02/12 08:40:29;;;;;;;;;;;;;;;;;;4424045;32;19951;-71
2023/02/12 08:42:57;;;;;;;;;;;;;;;;;;4422193;32;19938;-71
2023/02/12 08:45:22;;;;;;;;;;;;;;;;;;4423193;32;19933;-71
2023/02/12 08:47:47;;;;;;;;;;;;;;;;;;4423563;32;19970;-71
2023/02/12 08:50:12;;;;;;;;;;;;;;;;;;4423505;32;19945;-71
2023/02/12 08:52:37;;;;;;;;;;;;;;;;;;4424436;32;19933;-70
2023/02/12 08:55:03;;;;;;;;;;;;;;;;;;4423285;32;19952;-71
2023/02/12 08:57:28;;;;;;;;;;;;;;;;;;4424424;32;19946;-70
2023/02/12 08:59:53;;;;;;;;;;;;;;;;;;4422559;32;19951;-72
2023/02/12 09:02:18;;;;;;;;;;;;;;;;;;4420995;32;19933;-72
2023/02/12 09:04:43;;;;;;;;;;;;;;;;;;4423420;32;19933;-72
2023/02/12 09:07:08;;;;;;;;;;;;;;;;;;4422227;32;19946;-72
2023/02/12 09:09:33;;;;;;;;;;;;;;;;;;4421096;32;19936;-71
2023/02/12 09:11:58;;;;;;;;;;;;;;;;;;4422637;32;19941;-71
2023/02/12 09:14:23;;;;;;;;;;;;;;;;;;4421621;32;20361;-71
2023/02/12 09:16:51;;;;;;;;;;;;;;;;;;4423792;32;19987;-72
2023/02/12 09:19:16;;;;;;;;;;;;;;;;;;4423123;32;20049;-71
2023/02/12 09:21:41;;;;;;;;;;;;;;;;;;4423650;32;19940;-72
2023/02/12 09:24:06;;;;;;;;;;;;;;;;;;4422344;32;19964;-70
2023/02/12 09:26:31;;;;;;;;;;;;;;;;;;4422820;32;20259;-71
2023/02/12 09:28:56;;;;;;;;;;;;;;;;;;4421879;32;19953;-71
2023/02/12 09:31:24;;;;;;;;;;;;;;;;;;4422132;32;20353;-71
2023/02/12 09:33:50;;;;;;;;;;;;;;;;;;4421405;32;19945;-72
2023/02/12 09:36:15;;;;;;;;;;;;;;;;;;4421817;32;19933;-70
2023/02/12 09:38:40;;;;;;;;;;;;;;;;;;4422076;32;19933;-72
2023/02/12 09:41:05;;;;;;;;;;;;;;;;;;4418340;32;19949;-72
2023/02/12 09:43:30;;;;;;;;;;;;;;;;;;4421936;32;19937;-71
2023/02/12 09:45:55;;;;;;;;;;;;;;;;;;4422025;32;20314;-72
2023/02/12 09:48:20;;;;;;;;;;;;;;;;;;4423481;32;19970;-71
2023/02/12 09:50:45;;;;;;;;;;;;;;;;;;4420307;32;20289;-71
2023/02/12 09:53:11;;;;;;;;;;;;;;;;;;4420493;32;19975;-72
2023/02/12 09:55:36;;;;;;;;;;;;;;;;;;4421934;32;19994;-71
2023/02/12 09:58:01;;;;;;;;;;;;;;;;;;4421877;32;19997;-72
2023/02/12 10:00:30;;;;;;;;;;;;;;;;;;4420401;32;19937;-72
2023/02/12 10:02:55;;;;;;;;;;;;;;;;;;4422813;32;19978;-72
2023/02/12 10:05:20;;;;;;;;;;;;;;;;;;4420239;32;20363;-71
2023/02/12 10:07:45;;;;;;;;;;;;;;;;;;4421662;32;19949;-71
2023/02/12 10:10:10;;;;;;;;;;;;;;;;;;4421600;32;19948;-71
2023/02/12 10:12:35;;;;;;;;;;;;;;;;;;4420971;32;19952;-70
2023/02/12 10:15:01;;;;;;;;;;;;;;;;;;4421486;32;19948;-71
2023/02/12 10:17:26;;;;;;;;;;;;;;;;;;4420486;32;20326;-72
2023/02/12 10:19:51;;;;;;;;;;;;;;;;;;4421984;32;19989;-72
2023/02/12 10:22:16;;;;;;;;;;;;;;;;;;4420286;32;19972;-72
2023/02/12 10:24:41;;;;;;;;;;;;;;;;;;4421446;32;19941;-71
2023/02/12 10:27:06;;;;;;;;;;;;;;;;;;4421201;32;19972;-71
2023/02/12 10:29:31;;;;;;;;;;;;;;;;;;4420192;32;19990;-71
2023/02/12 10:31:57;;;;;;;;;;;;;;;;;;4421236;32;19974;-71
2023/02/12 10:34:22;;;;;;;;;;;;;;;;;;4421946;32;19937;-71
2023/02/12 10:36:47;;;;;;;;;;;;;;;;;;4421315;32;19980;-71
2023/02/12 10:39:12;;;;;;;;;;;;;;;;;;4422247;32;19933;-72
2023/02/12 10:41:38;;;;;;;;;;;;;;;;;;4419649;32;19996;-71
2023/02/12 10:44:03;;;;;;;;;;;;;;;;;;4420904;32;19953;-72
2023/02/12 10:46:28;;;;;;;;;;;;;;;;;;4419600;32;19937;-72
2023/02/12 10:48:53;;;;;;;;;;;;;;;;;;4420800;32;19938;-71
2023/02/12 10:51:18;;;;;;;;;;;;;;;;;;4420708;32;20266;-72
2023/02/12 10:53:43;;;;;;;;;;;;;;;;;;4419624;32;20109;-72
2023/02/12 10:56:08;;;;;;;;;;;;;;;;;;4419277;32;19937;-71
2023/02/12 10:58:34;;;;;;;;;;;;;;;;;;4421098;32;19933;-71
2023/02/12 11:00:59;;;;;;;;;;;;;;;;;;4420993;32;19947;-72
2023/02/12 11:03:24;;;;;;;;;;;;;;;;;;4422203;32;19933;-71
2023/02/12 11:05:49;;;;;;;;;;;;;;;;;;4421421;32;20304;-71
2023/02/12 11:08:14;;;;;;;;;;;;;;;;;;4421338;32;19953;-71
2023/02/12 11:10:39;;;;;;;;;;;;;;;;;;4420460;32;19977;-71
2023/02/12 11:13:04;;;;;;;;;;;;;;;;;;4420923;32;19941;-71
2023/02/12 11:15:30;;;;;;;;;;;;;;;;;;4421701;32;19967;-72
2023/02/12 11:17:55;;;;;;;;;;;;;;;;;;4420309;32;20324;-70
2023/02/12 11:20:20;;;;;;;;;;;;;;;;;;4422738;32;20100;-71
2023/02/12 11:22:45;;;;;;;;;;;;;;;;;;4421364;32;19968;-71
2023/02/12 11:25:10;;;;;;;;;;;;;;;;;;4419490;32;19941;-70
2023/02/12 11:27:35;;;;;;;;;;;;;;;;;;4419386;32;19989;-71
2023/02/12 11:30:01;;;;;;;;;;;;;;;;;;4421721;32;19952;-71
2023/02/12 11:32:26;;;;;;;;;;;;;;;;;;4421525;32;19964;-71
2023/02/12 11:34:51;;;;;;;;;;;;;;;;;;4423020;32;19952;-72
2023/02/12 11:37:17;;;;;;;;;;;;;;;;;;4422033;32;20368;-71
2023/02/12 11:39:42;;;;;;;;;;;;;;;;;;4420964;32;19947;-71
2023/02/12 11:42:13;;;;;;;;;;;;;;;;;;4421742;32;19937;-72
2023/02/12 11:44:38;;;;;;;;;;;;;;;;;;4421078;32;19929;-72
2023/02/12 11:47:07;;;;;;;;;;;;;;;;;;4420212;32;19937;-71
2023/02/12 11:49:33;;;;;;;;;;;;;;;;;;4419072;32;19929;-71
2023/02/12 11:51:58;;;;;;;;;;;;;;;;;;4421459;32;19974;-70
2023/02/12 11:54:23;;;;;;;;;;;;;;;;;;4420016;32;20345;-71
2023/02/12 11:56:48;;;;;;;;;;;;;;;;;;4420837;32;19949;-71
2023/02/12 11:59:13;;;;;;;;;;;;;;;;;;4420206;32;20004;-71
2023/02/12 12:01:40;;;;;;;;;;;;;;;;;;4421975;32;19938;-71
2023/02/12 12:04:05;;;;;;;;;;;;;;;;;;4420575;32;19985;-71
2023/02/12 12:06:30;;;;;;;;;;;;;;;;;;4419952;32;19948;-70
2023/02/12 12:08:56;;;;;;;;;;;;;;;;;;4420088;32;19965;-71
2023/02/12 12:11:21;;;;;;;;;;;;;;;;;;4420470;32;20349;-72
2023/02/12 12:13:46;;;;;;;;;;;;;;;;;;4422442;32;19976;-72
2023/02/12 12:21:40;;;;;;;;;;;;;;;;;;4424241;32;20341;-72
2023/02/12 12:24:05;;;;;;;;;;;;;;;;;;4419053;32;19966;-72
2023/02/12 12:26:30;;;;;;;;;;;;;;;;;;4413034;32;20000;-72
2023/02/12 12:28:55;;;;;;;;;;;;;;;;;;4412459;32;19989;-72
2023/02/12 12:31:20;;;;;;;;;;;;;;;;;;4413955;32;20332;-72
2023/02/12 12:33:45;;;;;;;;;;;;;;;;;;4410138;32;20327;-74
2023/02/12 12:36:11;;;;;;;;;;;;;;;;;;4405572;32;20236;-72
2023/02/12 12:38:36;;;;;;;;;;;;;;;;;;4407355;32;19971;-72
2023/02/12 12:41:01;;;;;;;;;;;;;;;;;;4406581;32;19937;-73
2023/02/12 12:43:26;;;;;;;;;;;;;;;;;;4407220;32;20284;-72
2023/02/12 12:45:51;;;;;;;;;;;;;;;;;;4407279;32;19938;-72
2023/02/12 12:48:16;;;;;;;;;;;;;;;;;;4407419;32;20007;-72
2023/02/12 12:50:44;;;;;;;;;;;;;;;;;;4406690;32;19995;-72
2023/02/12 12:53:09;;;;;;;;;;;;;;;;;;4409192;32;20261;-71
2023/02/12 12:55:35;;;;;;;;;;;;;;;;;;4415177;32;19975;-71
2023/02/12 12:58:00;;;;;;;;;;;;;;;;;;4421017;32;19941;-73
2023/02/12 13:00:25;;;;;;;;;;;;;;;;;;4422238;32;19937;-72
2023/02/12 13:02:50;;;;;;;;;;;;;;;;;;4422755;32;20311;-71
2023/02/12 13:05:15;;;;;;;;;;;;;;;;;;4423268;32;19944;-73
2023/02/12 13:07:40;;;;;;;;;;;;;;;;;;4421183;32;19980;-74
2023/02/12 13:10:06;;;;;;;;;;;;;;;;;;4421108;32;19964;-72
2023/02/12 13:12:31;;;;;;;;;;;;;;;;;;4423452;32;19952;-73
2023/02/12 13:14:56;;;;;;;;;;;;;;;;;;4420850;32;19941;-72
2023/02/12 13:17:21;;;;;;;;;;;;;;;;;;4422002;32;19959;-72
2023/02/12 13:19:46;;;;;;;;;;;;;;;;;;4422256;32;20390;-72
2023/02/12 13:22:11;;;;;;;;;;;;;;;;;;4422172;32;20305;-71
2023/02/12 13:24:37;;;;;;;;;;;;;;;;;;4421986;32;19981;-72
2023/02/12 13:27:02;;;;;;;;;;;;;;;;;;4421687;32;19937;-73
2023/02/12 13:29:27;;;;;;;;;;;;;;;;;;4421004;32;19937;-73
2023/02/12 13:31:52;;;;;;;;;;;;;;;;;;4422554;32;19951;-71
2023/02/12 13:34:17;;;;;;;;;;;;;;;;;;4422278;32;19941;-71
2023/02/12 13:36:42;;;;;;;;;;;;;;;;;;4421125;32;20224;-71
2023/02/12 13:39:07;;;;;;;;;;;;;;;;;;4421293;32;19933;-72
2023/02/12 13:41:32;;;;;;;;;;;;;;;;;;4422461;32;19983;-72
2023/02/12 13:43:58;;;;;;;;;;;;;;;;;;4420729;32;20311;-72
2023/02/12 13:46:24;;;;;;;;;;;;;;;;;;4422184;32;19942;-72
2023/02/12 13:48:49;;;;;;;;;;;;;;;;;;4420135;32;20243;-71
2023/02/12 13:51:14;;;;;;;;;;;;;;;;;;4421867;32;20208;-72
2023/02/12 13:53:39;;;;;;;;;;;;;;;;;;4423178;32;20362;-72
2023/02/12 13:56:04;;;;;;;;;;;;;;;;;;4422639;32;19944;-71
2023/02/12 13:58:38;;;;;;;;;;;;;;;;;;4422914;32;19937;-72
2023/02/12 14:01:03;;;;;;;;;;;;;;;;;;4421078;32;19933;-72
2023/02/12 14:03:28;;;;;;;;;;;;;;;;;;4421602;32;19971;-71
2023/02/12 14:05:54;;;;;;;;;;;;;;;;;;4421764;32;19964;-72
2023/02/12 14:08:19;;;;;;;;;;;;;;;;;;4421666;32;19957;-73
2023/02/12 14:10:44;;;;;;;;;;;;;;;;;;4421619;32;19944;-72
2023/02/12 14:13:09;;;;;;;;;;;;;;;;;;4422204;32;19949;-72
2023/02/12 14:15:35;;;;;;;;;;;;;;;;;;4421627;32;19953;-72
2023/02/12 14:18:00;;;;;;;;;;;;;;;;;;4421891;32;19934;-73
2023/02/12 14:20:25;;;;;;;;;;;;;;;;;;4421226;32;19986;-71
2023/02/12 14:22:50;;;;;;;;;;;;;;;;;;4421211;32;20299;-71
2023/02/12 14:25:15;;;;;;;;;;;;;;;;;;4421716;32;19937;-71
2023/02/12 14:27:40;;;;;;;;;;;;;;;;;;4421988;32;19981;-71
2023/02/12 14:30:05;;;;;;;;;;;;;;;;;;4421348;32;19937;-71
2023/02/12 14:32:30;;;;;;;;;;;;;;;;;;4419532;32;20075;-70
2023/02/12 14:34:55;;;;;;;;;;;;;;;;;;4420654;32;19949;-71
2023/02/12 14:37:21;;;;;;;;;;;;;;;;;;4420865;32;19937;-71
2023/02/12 14:39:46;;;;;;;;;;;;;;;;;;4419831;32;19994;-72
2023/02/12 14:42:11;;;;;;;;;;;;;;;;;;4421059;32;19933;-72
2023/02/12 14:44:36;;;;;;;;;;;;;;;;;;4419813;32;20024;-72
2023/02/12 14:47:01;;;;;;;;;;;;;;;;;;4420849;32;19933;-72
2023/02/12 14:49:26;;;;;;;;;;;;;;;;;;4419515;32;20358;-72
2023/02/12 14:51:52;;;;;;;;;;;;;;;;;;4421392;32;20335;-71
2023/02/12 14:54:17;;;;;;;;;;;;;;;;;;4419784;32;20008;-72
2023/02/12 14:56:42;;;;;;;;;;;;;;;;;;4421350;32;19948;-72
2023/02/12 14:59:07;;;;;;;;;;;;;;;;;;4421583;32;19947;-72
2023/02/12 15:01:32;;;;;;;;;;;;;;;;;;4419661;32;19967;-72
2023/02/12 15:03:59;;;;;;;;;;;;;;;;;;4420973;32;19937;-72
2023/02/12 15:06:26;;;;;;;;;;;;;;;;;;4419432;32;19956;-71
2023/02/12 15:08:51;;;;;;;;;;;;;;;;;;4421318;32;19933;-72
2023/02/12 15:11:16;;;;;;;;;;;;;;;;;;4421258;32;19979;-71
2023/02/12 15:13:41;;;;;;;;;;;;;;;;;;4420543;32;20047;-71
2023/02/12 15:16:06;;;;;;;;;;;;;;;;;;4421725;32;20342;-72
2023/02/12 15:18:32;;;;;;;;;;;;;;;;;;4420879;32;19933;-72
2023/02/12 15:20:57;;;;;;;;;;;;;;;;;;4420564;32;19933;-72
2023/02/12 15:23:22;;;;;;;;;;;;;;;;;;4419832;32;19941;-71
2023/02/12 15:25:47;;;;;;;;;;;;;;;;;;4422145;32;19975;-71
2023/02/12 15:28:12;;;;;;;;;;;;;;;;;;4419653;32;19989;-70
2023/02/12 15:30:37;;;;;;;;;;;;;;;;;;4422045;32;19941;-72
2023/02/12 15:33:02;;;;;;;;;;;;;;;;;;4421669;32;19933;-71
2023/02/12 15:35:27;;;;;;;;;;;;;;;;;;4421925;32;19991;-71
2023/02/12 15:37:52;;;;;;;;;;;;;;;;;;4420802;32;19937;-70
2023/02/12 15:40:17;;;;;;;;;;;;;;;;;;4418807;32;19967;-71
2023/02/12 15:42:43;;;;;;;;;;;;;;;;;;4420104;32;19933;-70
2023/02/12 15:45:08;;;;;;;;;;;;;;;;;;4419806;32;19952;-71
2023/02/12 15:47:33;;;;;;;;;;;;;;;;;;4416579;32;19952;-70
2023/02/12 15:49:59;;;;;;;;;;;;;;;;;;4408849;32;19937;-70
2023/02/12 15:52:24;;;;;;;;;;;;;;;;;;4409468;32;20011;-70
2023/02/12 15:54:49;;;;;;;;;;;;;;;;;;4423286;32;19948;-71
2023/02/12 15:57:14;;;;;;;;;;;;;;;;;;4410925;32;19933;-70
2023/02/12 15:59:39;;;;;;;;;;;;;;;;;;4407209;32;19938;-70
2023/02/12 16:02:04;;;;;;;;;;;;;;;;;;4419831;32;20228;-70
2023/02/12 16:04:29;;;;;;;;;;;;;;;;;;4421696;32;19957;-71
2023/02/12 16:06:55;;;;;;;;;;;;;;;;;;4421334;32;19995;-70
2023/02/12 16:09:25;;;;;;;;;;;;;;;;;;4423479;32;20307;-69
2023/02/12 16:11:50;;;;;;;;;;;;;;;;;;4415265;32;20329;-71
2023/02/12 16:14:15;;;;;;;;;;;;;;;;;;4422926;32;20330;-71
2023/02/12 16:16:40;;;;;;;;;;;;;;;;;;4419299;32;19941;-71
2023/02/12 16:19:05;;;;;;;;;;;;;;;;;;4422892;32;19961;-71
2023/02/12 16:21:30;;;;;;;;;;;;;;;;;;4422864;32;19971;-70
2023/02/12 16:23:55;;;;;;;;;;;;;;;;;;4421321;32;20000;-71
2023/02/12 16:26:20;;;;;;;;;;;;;;;;;;4422827;32;19990;-71
2023/02/12 16:28:46;;;;;;;;;;;;;;;;;;4410426;32;20232;-72
2023/02/12 16:31:11;;;;;;;;;;;;;;;;;;4412904;32;19933;-71
2023/02/12 16:33:36;;;;;;;;;;;;;;;;;;4421860;32;19980;-70
2023/02/12 16:36:01;;;;;;;;;;;;;;;;;;4419297;32;19967;-70
2023/02/12 16:38:26;;;;;;;;;;;;;;;;;;4407887;32;20002;-72
2023/02/12 16:40:51;;;;;;;;;;;;;;;;;;4410602;32;19933;-71